sensor_id;sensor_type;location;lat;lon;timestamp;P1;durP1;ratioP1;P2;durP2;ratioP2
73791;SDS011;62122;41.112;16.694;2022-09-06T00:01:55;12.50;;;6.77;;
73791;SDS011;62122;41.112;16.694;2022-09-06T00:05:02;10.40;;;6.30;;
73791;SDS011;62122;41.112;16.694;2022-09-06T00:08:07;10.35;;;6.15;;
73791;SDS011;62122;41.112;16.694;2022-09-06T00:11:11;15.93;;;6.60;;
73791;SDS011;62122;41.112;16.694;2022-09-06T00:14:16;9.82;;;6.45;;
73791;SDS011;62122;41.112;16.694;2022-09-06T00:17:19;10.80;;;6.83;;
73791;SDS011;62122;41.112;16.694;2022-09-06T00:20:24;12.13;;;6.50;;
73791;SDS011;62122;41.112;16.694;2022-09-06T00:23:31;11.00;;;6.55;;
73791;SDS011;62122;41.112;16.694;2022-09-06T00:26:35;12.10;;;6.38;;
73791;SDS011;62122;41.112;16.694;2022-09-06T00:29:39;9.63;;;6.35;;
73791;SDS011;62122;41.112;16.694;2022-09-06T00:32:42;10.47;;;5.83;;
73791;SDS011;62122;41.112;16.694;2022-09-06T00:35:46;8.88;;;6.18;;
73791;SDS011;62122;41.112;16.694;2022-09-06T00:38:51;12.27;;;6.95;;
73791;SDS011;62122;41.112;16.694;2022-09-06T00:41:55;9.18;;;6.15;;
73791;SDS011;62122;41.112;16.694;2022-09-06T00:45:00;12.00;;;6.95;;
73791;SDS011;62122;41.112;16.694;2022-09-06T00:48:05;8.97;;;5.93;;
73791;SDS011;62122;41.112;16.694;2022-09-06T00:51:10;10.55;;;6.28;;
73791;SDS011;62122;41.112;16.694;2022-09-06T00:54:15;10.90;;;6.45;;
73791;SDS011;62122;41.112;16.694;2022-09-06T00:57:20;9.70;;;6.30;;
73791;SDS011;62122;41.112;16.694;2022-09-06T01:00:29;10.20;;;5.68;;
73791;SDS011;62122;41.112;16.694;2022-09-06T01:03:34;10.23;;;6.10;;
73791;SDS011;62122;41.112;16.694;2022-09-06T01:16:55;10.32;;;6.20;;
73791;SDS011;62122;41.112;16.694;2022-09-06T01:23:45;12.25;;;6.53;;
73791;SDS011;62122;41.112;16.694;2022-09-06T01:27:09;11.07;;;6.45;;
73791;SDS011;62122;41.112;16.694;2022-09-06T01:30:22;9.55;;;5.85;;
73791;SDS011;62122;41.112;16.694;2022-09-06T01:33:39;10.82;;;5.72;;
73791;SDS011;62122;41.112;16.694;2022-09-06T01:37:06;9.50;;;5.70;;
73791;SDS011;62122;41.112;16.694;2022-09-06T01:40:16;10.35;;;5.57;;
73791;SDS011;62122;41.112;16.694;2022-09-06T01:43:26;10.52;;;5.07;;
73791;SDS011;62122;41.112;16.694;2022-09-06T01:50:10;8.65;;;5.55;;
73791;SDS011;62122;41.112;16.694;2022-09-06T02:04:01;11.02;;;6.00;;
73791;SDS011;62122;41.112;16.694;2022-09-06T02:06:51;8.65;;;5.72;;
73791;SDS011;62122;41.112;16.694;2022-09-06T02:10:48;9.20;;;5.27;;
73791;SDS011;62122;41.112;16.694;2022-09-06T02:13:38;11.93;;;6.05;;
73791;SDS011;62122;41.112;16.694;2022-09-06T02:16:43;9.40;;;5.00;;
73791;SDS011;62122;41.112;16.694;2022-09-06T02:19:55;6.97;;;4.20;;
73791;SDS011;62122;41.112;16.694;2022-09-06T02:23:06;8.27;;;5.20;;
73791;SDS011;62122;41.112;16.694;2022-09-06T02:26:20;8.50;;;4.97;;
73791;SDS011;62122;41.112;16.694;2022-09-06T02:29:27;7.43;;;5.00;;
73791;SDS011;62122;41.112;16.694;2022-09-06T02:32:32;7.50;;;5.00;;
73791;SDS011;62122;41.112;16.694;2022-09-06T02:35:42;8.63;;;4.63;;
73791;SDS011;62122;41.112;16.694;2022-09-06T02:38:48;8.95;;;4.95;;
73791;SDS011;62122;41.112;16.694;2022-09-06T02:41:53;8.83;;;4.97;;
73791;SDS011;62122;41.112;16.694;2022-09-06T02:44:57;8.02;;;4.28;;
73791;SDS011;62122;41.112;16.694;2022-09-06T02:48:01;7.18;;;4.50;;
73791;SDS011;62122;41.112;16.694;2022-09-06T02:51:06;7.28;;;4.38;;
73791;SDS011;62122;41.112;16.694;2022-09-06T02:54:11;9.20;;;4.65;;
73791;SDS011;62122;41.112;16.694;2022-09-06T02:57:15;7.93;;;4.87;;
73791;SDS011;62122;41.112;16.694;2022-09-06T03:00:20;6.88;;;4.57;;
73791;SDS011;62122;41.112;16.694;2022-09-06T03:03:24;8.35;;;5.03;;
73791;SDS011;62122;41.112;16.694;2022-09-06T03:06:28;6.90;;;4.95;;
73791;SDS011;62122;41.112;16.694;2022-09-06T03:09:33;6.40;;;4.47;;
73791;SDS011;62122;41.112;16.694;2022-09-06T03:12:40;5.73;;;3.63;;
73791;SDS011;62122;41.112;16.694;2022-09-06T03:15:49;7.40;;;4.43;;
73791;SDS011;62122;41.112;16.694;2022-09-06T03:18:54;5.65;;;4.25;;
73791;SDS011;62122;41.112;16.694;2022-09-06T03:21:58;7.32;;;3.95;;
73791;SDS011;62122;41.112;16.694;2022-09-06T03:25:02;7.90;;;4.43;;
73791;SDS011;62122;41.112;16.694;2022-09-06T03:28:06;8.07;;;4.17;;
73791;SDS011;62122;41.112;16.694;2022-09-06T03:31:10;6.15;;;3.90;;
73791;SDS011;62122;41.112;16.694;2022-09-06T03:34:14;7.90;;;4.47;;
73791;SDS011;62122;41.112;16.694;2022-09-06T03:37:20;8.65;;;4.55;;
73791;SDS011;62122;41.112;16.694;2022-09-06T03:40:24;9.13;;;5.05;;
73791;SDS011;62122;41.112;16.694;2022-09-06T03:43:28;9.10;;;4.27;;
73791;SDS011;62122;41.112;16.694;2022-09-06T03:46:36;7.15;;;3.95;;
73791;SDS011;62122;41.112;16.694;2022-09-06T03:49:41;6.85;;;4.25;;
73791;SDS011;62122;41.112;16.694;2022-09-06T03:52:46;7.95;;;4.40;;
73791;SDS011;62122;41.112;16.694;2022-09-06T03:55:52;6.90;;;4.25;;
73791;SDS011;62122;41.112;16.694;2022-09-06T03:58:57;6.53;;;4.20;;
73791;SDS011;62122;41.112;16.694;2022-09-06T04:02:02;6.78;;;4.38;;
73791;SDS011;62122;41.112;16.694;2022-09-06T04:05:06;7.95;;;5.00;;
73791;SDS011;62122;41.112;16.694;2022-09-06T04:08:12;7.60;;;4.00;;
73791;SDS011;62122;41.112;16.694;2022-09-06T04:11:18;9.55;;;4.30;;
73791;SDS011;62122;41.112;16.694;2022-09-06T04:14:22;9.07;;;6.40;;
73791;SDS011;62122;41.112;16.694;2022-09-06T04:17:26;8.65;;;4.72;;
73791;SDS011;62122;41.112;16.694;2022-09-06T04:20:30;8.25;;;4.63;;
73791;SDS011;62122;41.112;16.694;2022-09-06T04:23:34;8.95;;;5.38;;
73791;SDS011;62122;41.112;16.694;2022-09-06T04:26:38;6.63;;;4.18;;
73791;SDS011;62122;41.112;16.694;2022-09-06T04:29:42;16.30;;;8.90;;
73791;SDS011;62122;41.112;16.694;2022-09-06T04:32:46;11.77;;;5.10;;
73791;SDS011;62122;41.112;16.694;2022-09-06T04:35:52;8.45;;;4.30;;
73791;SDS011;62122;41.112;16.694;2022-09-06T04:38:56;10.77;;;5.00;;
73791;SDS011;62122;41.112;16.694;2022-09-06T04:42:01;7.70;;;4.90;;
73791;SDS011;62122;41.112;16.694;2022-09-06T04:45:05;9.93;;;5.20;;
73791;SDS011;62122;41.112;16.694;2022-09-06T04:48:10;9.77;;;6.10;;
73791;SDS011;62122;41.112;16.694;2022-09-06T04:51:14;7.53;;;4.72;;
73791;SDS011;62122;41.112;16.694;2022-09-06T04:54:19;10.48;;;5.75;;
73791;SDS011;62122;41.112;16.694;2022-09-06T04:57:23;11.07;;;6.03;;
73791;SDS011;62122;41.112;16.694;2022-09-06T05:00:27;13.90;;;7.03;;
73791;SDS011;62122;41.112;16.694;2022-09-06T05:03:35;20.48;;;9.75;;
73791;SDS011;62122;41.112;16.694;2022-09-06T05:06:39;25.70;;;12.20;;
73791;SDS011;62122;41.112;16.694;2022-09-06T05:09:43;27.30;;;14.75;;
73791;SDS011;62122;41.112;16.694;2022-09-06T05:12:48;21.10;;;11.90;;
73791;SDS011;62122;41.112;16.694;2022-09-06T05:15:53;18.97;;;10.20;;
73791;SDS011;62122;41.112;16.694;2022-09-06T05:18:58;14.27;;;8.85;;
73791;SDS011;62122;41.112;16.694;2022-09-06T05:22:01;16.30;;;9.43;;
73791;SDS011;62122;41.112;16.694;2022-09-06T05:25:07;16.17;;;9.07;;
73791;SDS011;62122;41.112;16.694;2022-09-06T05:28:11;11.15;;;6.82;;
73791;SDS011;62122;41.112;16.694;2022-09-06T05:31:23;15.27;;;7.60;;
73791;SDS011;62122;41.112;16.694;2022-09-06T05:34:30;13.10;;;6.80;;
73791;SDS011;62122;41.112;16.694;2022-09-06T05:37:34;13.32;;;6.90;;
73791;SDS011;62122;41.112;16.694;2022-09-06T05:40:38;15.65;;;7.13;;
73791;SDS011;62122;41.112;16.694;2022-09-06T05:43:42;14.90;;;7.25;;
73791;SDS011;62122;41.112;16.694;2022-09-06T05:46:45;10.40;;;7.20;;
73791;SDS011;62122;41.112;16.694;2022-09-06T05:49:49;11.57;;;6.82;;
73791;SDS011;62122;41.112;16.694;2022-09-06T05:52:54;12.05;;;6.30;;
73791;SDS011;62122;41.112;16.694;2022-09-06T05:55:59;13.90;;;6.07;;
73791;SDS011;62122;41.112;16.694;2022-09-06T05:59:03;14.43;;;8.90;;
73791;SDS011;62122;41.112;16.694;2022-09-06T06:02:08;10.20;;;6.27;;
73791;SDS011;62122;41.112;16.694;2022-09-06T06:05:12;10.82;;;6.28;;
73791;SDS011;62122;41.112;16.694;2022-09-06T06:08:16;11.95;;;5.68;;
73791;SDS011;62122;41.112;16.694;2022-09-06T06:11:21;10.30;;;5.80;;
73791;SDS011;62122;41.112;16.694;2022-09-06T06:14:25;10.10;;;6.00;;
73791;SDS011;62122;41.112;16.694;2022-09-06T06:17:29;11.07;;;5.30;;
73791;SDS011;62122;41.112;16.694;2022-09-06T06:20:33;11.82;;;5.90;;
73791;SDS011;62122;41.112;16.694;2022-09-06T06:23:37;10.45;;;5.97;;
73791;SDS011;62122;41.112;16.694;2022-09-06T06:26:42;12.73;;;5.53;;
73791;SDS011;62122;41.112;16.694;2022-09-06T06:29:46;13.63;;;5.72;;
73791;SDS011;62122;41.112;16.694;2022-09-06T06:32:52;15.52;;;5.93;;
73791;SDS011;62122;41.112;16.694;2022-09-06T06:39:32;11.65;;;6.35;;
73791;SDS011;62122;41.112;16.694;2022-09-06T06:42:36;10.93;;;6.00;;
73791;SDS011;62122;41.112;16.694;2022-09-06T06:45:40;12.18;;;6.30;;
73791;SDS011;62122;41.112;16.694;2022-09-06T06:48:44;11.55;;;5.10;;
73791;SDS011;62122;41.112;16.694;2022-09-06T06:51:49;12.88;;;5.00;;
73791;SDS011;62122;41.112;16.694;2022-09-06T06:54:53;8.63;;;4.53;;
73791;SDS011;62122;41.112;16.694;2022-09-06T06:58:00;11.73;;;5.10;;
73791;SDS011;62122;41.112;16.694;2022-09-06T07:01:04;8.00;;;3.42;;
73791;SDS011;62122;41.112;16.694;2022-09-06T07:04:08;7.07;;;2.80;;
73791;SDS011;62122;41.112;16.694;2022-09-06T07:07:14;11.53;;;7.70;;
73791;SDS011;62122;41.112;16.694;2022-09-06T07:10:18;10.73;;;3.40;;
73791;SDS011;62122;41.112;16.694;2022-09-06T07:13:23;8.10;;;3.00;;
73791;SDS011;62122;41.112;16.694;2022-09-06T07:16:27;7.30;;;2.80;;
73791;SDS011;62122;41.112;16.694;2022-09-06T07:19:32;7.30;;;3.00;;
73791;SDS011;62122;41.112;16.694;2022-09-06T07:22:36;6.87;;;2.83;;
73791;SDS011;62122;41.112;16.694;2022-09-06T07:25:40;6.75;;;2.58;;
73791;SDS011;62122;41.112;16.694;2022-09-06T07:28:44;4.72;;;2.60;;
73791;SDS011;62122;41.112;16.694;2022-09-06T07:31:49;6.40;;;2.60;;
73791;SDS011;62122;41.112;16.694;2022-09-06T07:34:55;4.93;;;2.50;;
73791;SDS011;62122;41.112;16.694;2022-09-06T07:37:59;5.75;;;3.20;;
73791;SDS011;62122;41.112;16.694;2022-09-06T07:41:05;5.72;;;2.88;;
73791;SDS011;62122;41.112;16.694;2022-09-06T07:44:10;4.70;;;2.60;;
73791;SDS011;62122;41.112;16.694;2022-09-06T07:47:14;5.60;;;2.90;;
73791;SDS011;62122;41.112;16.694;2022-09-06T07:50:20;7.28;;;3.50;;
73791;SDS011;62122;41.112;16.694;2022-09-06T07:53:24;6.43;;;3.30;;
73791;SDS011;62122;41.112;16.694;2022-09-06T07:56:28;8.40;;;3.35;;
73791;SDS011;62122;41.112;16.694;2022-09-06T07:59:32;8.10;;;3.22;;
73791;SDS011;62122;41.112;16.694;2022-09-06T08:02:36;6.85;;;3.60;;
73791;SDS011;62122;41.112;16.694;2022-09-06T08:05:40;8.15;;;4.05;;
73791;SDS011;62122;41.112;16.694;2022-09-06T08:08:44;8.13;;;3.70;;
73791;SDS011;62122;41.112;16.694;2022-09-06T08:11:48;7.18;;;3.10;;
73791;SDS011;62122;41.112;16.694;2022-09-06T08:14:53;6.95;;;3.10;;
73791;SDS011;62122;41.112;16.694;2022-09-06T08:17:59;6.95;;;2.78;;
73791;SDS011;62122;41.112;16.694;2022-09-06T08:21:07;5.40;;;2.95;;
73791;SDS011;62122;41.112;16.694;2022-09-06T08:24:16;8.83;;;3.40;;
73791;SDS011;62122;41.112;16.694;2022-09-06T08:27:21;10.85;;;3.53;;
73791;SDS011;62122;41.112;16.694;2022-09-06T08:30:26;10.38;;;4.30;;
73791;SDS011;62122;41.112;16.694;2022-09-06T08:33:31;6.07;;;3.10;;
73791;SDS011;62122;41.112;16.694;2022-09-06T08:36:35;7.07;;;2.88;;
73791;SDS011;62122;41.112;16.694;2022-09-06T08:39:40;6.85;;;3.80;;
73791;SDS011;62122;41.112;16.694;2022-09-06T08:42:47;12.75;;;4.30;;
73791;SDS011;62122;41.112;16.694;2022-09-06T08:45:54;14.00;;;3.97;;
73791;SDS011;62122;41.112;16.694;2022-09-06T08:48:59;6.28;;;3.22;;
73791;SDS011;62122;41.112;16.694;2022-09-06T09:02:20;5.72;;;3.50;;
73791;SDS011;62122;41.112;16.694;2022-09-06T09:05:28;5.20;;;3.38;;
73791;SDS011;62122;41.112;16.694;2022-09-06T09:11:57;6.20;;;3.30;;
73791;SDS011;62122;41.112;16.694;2022-09-06T09:15:06;10.07;;;4.13;;
73791;SDS011;62122;41.112;16.694;2022-09-06T09:18:16;8.57;;;3.85;;
73791;SDS011;62122;41.112;16.694;2022-09-06T09:21:26;6.93;;;3.30;;
73791;SDS011;62122;41.112;16.694;2022-09-06T09:24:33;5.65;;;3.95;;
73791;SDS011;62122;41.112;16.694;2022-09-06T09:27:39;8.77;;;3.78;;
73791;SDS011;62122;41.112;16.694;2022-09-06T09:30:46;6.07;;;3.75;;
73791;SDS011;62122;41.112;16.694;2022-09-06T09:33:54;7.78;;;3.70;;
73791;SDS011;62122;41.112;16.694;2022-09-06T09:37:17;11.60;;;4.20;;
73791;SDS011;62122;41.112;16.694;2022-09-06T09:43:29;15.60;;;8.75;;
73791;SDS011;62122;41.112;16.694;2022-09-06T09:46:36;6.95;;;3.95;;
73791;SDS011;62122;41.112;16.694;2022-09-06T09:49:42;4.97;;;2.90;;
73791;SDS011;62122;41.112;16.694;2022-09-06T09:52:46;7.78;;;3.05;;
73791;SDS011;62122;41.112;16.694;2022-09-06T09:55:54;5.88;;;3.42;;
73791;SDS011;62122;41.112;16.694;2022-09-06T09:59:00;9.15;;;3.60;;
73791;SDS011;62122;41.112;16.694;2022-09-06T10:05:33;7.72;;;3.20;;
73791;SDS011;62122;41.112;16.694;2022-09-06T10:08:38;6.43;;;3.35;;
73791;SDS011;62122;41.112;16.694;2022-09-06T10:11:56;7.72;;;3.65;;
73791;SDS011;62122;41.112;16.694;2022-09-06T10:15:01;6.03;;;3.33;;
73791;SDS011;62122;41.112;16.694;2022-09-06T10:18:05;6.18;;;3.25;;
73791;SDS011;62122;41.112;16.694;2022-09-06T10:21:25;9.48;;;3.33;;
73791;SDS011;62122;41.112;16.694;2022-09-06T10:28:06;8.55;;;3.10;;
73791;SDS011;62122;41.112;16.694;2022-09-06T10:51:57;5.22;;;2.90;;
73791;SDS011;62122;41.112;16.694;2022-09-06T10:55:05;6.22;;;2.60;;
73791;SDS011;62122;41.112;16.694;2022-09-06T10:58:16;4.70;;;2.13;;
73791;SDS011;62122;41.112;16.694;2022-09-06T11:04:41;8.02;;;2.55;;
73791;SDS011;62122;41.112;16.694;2022-09-06T11:07:51;6.28;;;2.63;;
73791;SDS011;62122;41.112;16.694;2022-09-06T11:11:06;7.32;;;2.60;;
73791;SDS011;62122;41.112;16.694;2022-09-06T11:14:18;5.65;;;2.83;;
73791;SDS011;62122;41.112;16.694;2022-09-06T11:17:37;5.55;;;2.60;;
73791;SDS011;62122;41.112;16.694;2022-09-06T11:24:13;5.55;;;2.55;;
73791;SDS011;62122;41.112;16.694;2022-09-06T11:30:34;5.05;;;2.78;;
73791;SDS011;62122;41.112;16.694;2022-09-06T11:33:38;4.68;;;2.90;;
73791;SDS011;62122;41.112;16.694;2022-09-06T11:36:45;4.28;;;2.60;;
73791;SDS011;62122;41.112;16.694;2022-09-06T11:40:37;4.68;;;2.88;;
73791;SDS011;62122;41.112;16.694;2022-09-06T11:46:56;5.07;;;3.17;;
73791;SDS011;62122;41.112;16.694;2022-09-06T11:53:30;6.28;;;2.88;;
73791;SDS011;62122;41.112;16.694;2022-09-06T11:59:59;4.88;;;3.00;;
73791;SDS011;62122;41.112;16.694;2022-09-06T12:03:10;5.35;;;3.08;;
73791;SDS011;62122;41.112;16.694;2022-09-06T12:07:09;4.50;;;3.00;;
73791;SDS011;62122;41.112;16.694;2022-09-06T12:13:55;5.32;;;3.03;;
73791;SDS011;62122;41.112;16.694;2022-09-06T12:20:07;7.10;;;3.15;;
73791;SDS011;62122;41.112;16.694;2022-09-06T12:26:50;4.97;;;3.20;;
73791;SDS011;62122;41.112;16.694;2022-09-06T12:30:12;5.07;;;3.08;;
73791;SDS011;62122;41.112;16.694;2022-09-06T12:33:33;7.43;;;3.05;;
73791;SDS011;62122;41.112;16.694;2022-09-06T12:36:45;5.55;;;3.15;;
73791;SDS011;62122;41.112;16.694;2022-09-06T12:39:56;6.28;;;3.53;;
73791;SDS011;62122;41.112;16.694;2022-09-06T12:43:02;8.45;;;3.50;;
73791;SDS011;62122;41.112;16.694;2022-09-06T12:46:07;5.35;;;3.13;;
73791;SDS011;62122;41.112;16.694;2022-09-06T12:49:11;6.35;;;3.13;;
73791;SDS011;62122;41.112;16.694;2022-09-06T12:52:18;6.32;;;3.60;;
73791;SDS011;62122;41.112;16.694;2022-09-06T12:55:29;6.75;;;3.60;;
73791;SDS011;62122;41.112;16.694;2022-09-06T12:58:37;5.47;;;3.22;;
73791;SDS011;62122;41.112;16.694;2022-09-06T13:01:44;7.20;;;3.63;;
73791;SDS011;62122;41.112;16.694;2022-09-06T13:05:04;6.22;;;3.65;;
73791;SDS011;62122;41.112;16.694;2022-09-06T13:08:17;6.55;;;3.72;;
73791;SDS011;62122;41.112;16.694;2022-09-06T13:11:29;6.70;;;3.50;;
73791;SDS011;62122;41.112;16.694;2022-09-06T13:14:37;7.53;;;3.90;;
73791;SDS011;62122;41.112;16.694;2022-09-06T13:17:42;5.53;;;3.70;;
73791;SDS011;62122;41.112;16.694;2022-09-06T13:20:56;5.28;;;3.42;;
73791;SDS011;62122;41.112;16.694;2022-09-06T13:24:01;6.53;;;3.50;;
73791;SDS011;62122;41.112;16.694;2022-09-06T13:30:40;5.82;;;3.35;;
73791;SDS011;62122;41.112;16.694;2022-09-06T13:33:44;5.63;;;3.40;;
73791;SDS011;62122;41.112;16.694;2022-09-06T13:37:00;7.97;;;3.75;;
73791;SDS011;62122;41.112;16.694;2022-09-06T13:43:44;8.48;;;4.57;;
73791;SDS011;62122;41.112;16.694;2022-09-06T13:46:51;7.82;;;4.63;;
73791;SDS011;62122;41.112;16.694;2022-09-06T13:49:58;10.88;;;4.40;;
73791;SDS011;62122;41.112;16.694;2022-09-06T13:53:02;8.70;;;4.50;;
73791;SDS011;62122;41.112;16.694;2022-09-06T13:56:08;8.23;;;4.28;;
73791;SDS011;62122;41.112;16.694;2022-09-06T13:59:12;6.72;;;4.53;;
73791;SDS011;62122;41.112;16.694;2022-09-06T14:02:16;7.55;;;4.65;;
73791;SDS011;62122;41.112;16.694;2022-09-06T14:05:25;7.38;;;4.07;;
73791;SDS011;62122;41.112;16.694;2022-09-06T14:08:28;6.65;;;3.95;;
73791;SDS011;62122;41.112;16.694;2022-09-06T14:11:34;8.32;;;4.68;;
73791;SDS011;62122;41.112;16.694;2022-09-06T14:14:41;8.38;;;4.93;;
73791;SDS011;62122;41.112;16.694;2022-09-06T14:17:48;7.38;;;4.30;;
73791;SDS011;62122;41.112;16.694;2022-09-06T14:20:53;7.38;;;4.30;;
73791;SDS011;62122;41.112;16.694;2022-09-06T14:24:01;7.43;;;4.35;;
73791;SDS011;62122;41.112;16.694;2022-09-06T14:27:06;8.15;;;4.38;;
73791;SDS011;62122;41.112;16.694;2022-09-06T14:30:11;6.30;;;4.10;;
73791;SDS011;62122;41.112;16.694;2022-09-06T14:33:17;6.35;;;4.10;;
73791;SDS011;62122;41.112;16.694;2022-09-06T14:36:23;6.63;;;4.35;;
73791;SDS011;62122;41.112;16.694;2022-09-06T14:39:28;6.30;;;3.97;;
73791;SDS011;62122;41.112;16.694;2022-09-06T14:42:32;7.15;;;4.47;;
73791;SDS011;62122;41.112;16.694;2022-09-06T14:45:39;9.30;;;4.00;;
73791;SDS011;62122;41.112;16.694;2022-09-06T14:48:43;7.50;;;3.30;;
73791;SDS011;62122;41.112;16.694;2022-09-06T14:51:50;5.47;;;3.67;;
73791;SDS011;62122;41.112;16.694;2022-09-06T14:54:54;7.03;;;4.30;;
73791;SDS011;62122;41.112;16.694;2022-09-06T14:57:58;7.38;;;4.20;;
73791;SDS011;62122;41.112;16.694;2022-09-06T15:01:22;5.90;;;4.15;;
73791;SDS011;62122;41.112;16.694;2022-09-06T15:04:29;8.48;;;4.45;;
73791;SDS011;62122;41.112;16.694;2022-09-06T15:07:33;6.70;;;4.57;;
73791;SDS011;62122;41.112;16.694;2022-09-06T15:10:38;5.63;;;3.72;;
73791;SDS011;62122;41.112;16.694;2022-09-06T15:13:42;6.50;;;3.30;;
73791;SDS011;62122;41.112;16.694;2022-09-06T15:16:47;7.75;;;4.03;;
73791;SDS011;62122;41.112;16.694;2022-09-06T15:19:55;9.57;;;3.72;;
73791;SDS011;62122;41.112;16.694;2022-09-06T15:23:00;6.00;;;3.78;;
73791;SDS011;62122;41.112;16.694;2022-09-06T15:26:06;6.20;;;4.20;;
73791;SDS011;62122;41.112;16.694;2022-09-06T15:29:12;6.82;;;4.55;;
73791;SDS011;62122;41.112;16.694;2022-09-06T15:32:17;7.57;;;4.47;;
73791;SDS011;62122;41.112;16.694;2022-09-06T15:35:21;7.65;;;4.20;;
73791;SDS011;62122;41.112;16.694;2022-09-06T15:38:25;7.03;;;4.55;;
73791;SDS011;62122;41.112;16.694;2022-09-06T15:41:29;8.07;;;4.50;;
73791;SDS011;62122;41.112;16.694;2022-09-06T15:44:35;7.22;;;4.28;;
73791;SDS011;62122;41.112;16.694;2022-09-06T15:47:39;10.43;;;4.63;;
73791;SDS011;62122;41.112;16.694;2022-09-06T15:50:43;6.88;;;4.10;;
73791;SDS011;62122;41.112;16.694;2022-09-06T15:53:47;7.00;;;4.60;;
73791;SDS011;62122;41.112;16.694;2022-09-06T15:56:51;7.97;;;5.10;;
73791;SDS011;62122;41.112;16.694;2022-09-06T15:59:55;10.45;;;5.07;;
73791;SDS011;62122;41.112;16.694;2022-09-06T16:03:01;6.90;;;4.40;;
73791;SDS011;62122;41.112;16.694;2022-09-06T16:06:06;6.90;;;4.50;;
73791;SDS011;62122;41.112;16.694;2022-09-06T16:09:12;6.90;;;4.07;;
73791;SDS011;62122;41.112;16.694;2022-09-06T16:12:16;7.18;;;5.13;;
73791;SDS011;62122;41.112;16.694;2022-09-06T16:15:21;8.35;;;5.10;;
73791;SDS011;62122;41.112;16.694;2022-09-06T16:18:25;8.98;;;5.88;;
73791;SDS011;62122;41.112;16.694;2022-09-06T16:21:29;6.70;;;4.82;;
73791;SDS011;62122;41.112;16.694;2022-09-06T16:24:34;9.38;;;5.78;;
73791;SDS011;62122;41.112;16.694;2022-09-06T16:27:40;6.70;;;4.20;;
73791;SDS011;62122;41.112;16.694;2022-09-06T16:30:43;6.47;;;4.63;;
73791;SDS011;62122;41.112;16.694;2022-09-06T16:33:48;9.80;;;6.00;;
73791;SDS011;62122;41.112;16.694;2022-09-06T16:36:56;9.18;;;4.32;;
73791;SDS011;62122;41.112;16.694;2022-09-06T16:40:00;10.52;;;7.65;;
73791;SDS011;62122;41.112;16.694;2022-09-06T16:43:04;6.25;;;4.50;;
73791;SDS011;62122;41.112;16.694;2022-09-06T16:46:07;12.88;;;5.32;;
73791;SDS011;62122;41.112;16.694;2022-09-06T16:49:12;9.38;;;5.18;;
73791;SDS011;62122;41.112;16.694;2022-09-06T16:52:18;8.82;;;5.18;;
73791;SDS011;62122;41.112;16.694;2022-09-06T16:55:22;6.50;;;4.57;;
73791;SDS011;62122;41.112;16.694;2022-09-06T16:58:27;8.48;;;6.07;;
73791;SDS011;62122;41.112;16.694;2022-09-06T17:01:32;9.50;;;4.50;;
73791;SDS011;62122;41.112;16.694;2022-09-06T17:04:38;8.80;;;5.20;;
73791;SDS011;62122;41.112;16.694;2022-09-06T17:07:42;7.18;;;5.10;;
73791;SDS011;62122;41.112;16.694;2022-09-06T17:10:49;7.30;;;4.15;;
73791;SDS011;62122;41.112;16.694;2022-09-06T17:13:53;7.75;;;5.18;;
73791;SDS011;62122;41.112;16.694;2022-09-06T17:16:59;8.93;;;6.05;;
73791;SDS011;62122;41.112;16.694;2022-09-06T17:20:09;9.63;;;5.00;;
73791;SDS011;62122;41.112;16.694;2022-09-06T17:23:13;7.75;;;4.90;;
73791;SDS011;62122;41.112;16.694;2022-09-06T17:26:18;11.05;;;6.63;;
73791;SDS011;62122;41.112;16.694;2022-09-06T17:29:24;10.68;;;6.22;;
73791;SDS011;62122;41.112;16.694;2022-09-06T17:32:30;9.90;;;5.03;;
73791;SDS011;62122;41.112;16.694;2022-09-06T17:35:34;8.90;;;5.03;;
73791;SDS011;62122;41.112;16.694;2022-09-06T17:38:41;6.85;;;4.90;;
73791;SDS011;62122;41.112;16.694;2022-09-06T17:41:46;8.52;;;5.15;;
73791;SDS011;62122;41.112;16.694;2022-09-06T17:44:53;10.98;;;5.20;;
73791;SDS011;62122;41.112;16.694;2022-09-06T17:47:57;9.38;;;5.40;;
73791;SDS011;62122;41.112;16.694;2022-09-06T17:51:08;11.15;;;6.15;;
73791;SDS011;62122;41.112;16.694;2022-09-06T17:54:13;7.55;;;4.63;;
73791;SDS011;62122;41.112;16.694;2022-09-06T17:57:17;9.85;;;4.90;;
73791;SDS011;62122;41.112;16.694;2022-09-06T18:00:22;9.60;;;5.40;;
73791;SDS011;62122;41.112;16.694;2022-09-06T18:03:27;11.15;;;5.63;;
73791;SDS011;62122;41.112;16.694;2022-09-06T18:06:33;13.52;;;7.43;;
73791;SDS011;62122;41.112;16.694;2022-09-06T18:09:39;11.30;;;6.80;;
73791;SDS011;62122;41.112;16.694;2022-09-06T18:21:08;10.52;;;6.18;;
73791;SDS011;62122;41.112;16.694;2022-09-06T18:24:11;9.88;;;6.28;;
73791;SDS011;62122;41.112;16.694;2022-09-06T18:27:18;10.82;;;6.88;;
73791;SDS011;62122;41.112;16.694;2022-09-06T18:30:22;12.20;;;7.22;;
73791;SDS011;62122;41.112;16.694;2022-09-06T18:33:26;14.15;;;8.15;;
73791;SDS011;62122;41.112;16.694;2022-09-06T18:36:31;13.55;;;8.45;;
73791;SDS011;62122;41.112;16.694;2022-09-06T18:39:35;16.45;;;9.30;;
73791;SDS011;62122;41.112;16.694;2022-09-06T18:42:42;13.48;;;8.27;;
73791;SDS011;62122;41.112;16.694;2022-09-06T18:45:48;12.70;;;7.65;;
73791;SDS011;62122;41.112;16.694;2022-09-06T18:48:55;17.48;;;8.38;;
73791;SDS011;62122;41.112;16.694;2022-09-06T18:52:00;12.95;;;8.35;;
73791;SDS011;62122;41.112;16.694;2022-09-06T18:55:06;15.10;;;8.15;;
73791;SDS011;62122;41.112;16.694;2022-09-06T18:58:10;15.55;;;8.40;;
73791;SDS011;62122;41.112;16.694;2022-09-06T19:01:16;13.73;;;7.70;;
73791;SDS011;62122;41.112;16.694;2022-09-06T19:04:22;12.10;;;7.60;;
73791;SDS011;62122;41.112;16.694;2022-09-06T19:07:27;10.88;;;7.15;;
73791;SDS011;62122;41.112;16.694;2022-09-06T19:10:31;14.85;;;6.68;;
73791;SDS011;62122;41.112;16.694;2022-09-06T19:13:35;11.60;;;6.78;;
73791;SDS011;62122;41.112;16.694;2022-09-06T19:16:41;16.20;;;6.82;;
73791;SDS011;62122;41.112;16.694;2022-09-06T19:19:46;14.65;;;7.70;;
73791;SDS011;62122;41.112;16.694;2022-09-06T19:22:50;14.20;;;7.28;;
73791;SDS011;62122;41.112;16.694;2022-09-06T19:25:55;15.40;;;7.68;;
73791;SDS011;62122;41.112;16.694;2022-09-06T19:29:05;11.82;;;7.20;;
73791;SDS011;62122;41.112;16.694;2022-09-06T19:32:11;16.08;;;7.72;;
73791;SDS011;62122;41.112;16.694;2022-09-06T19:35:17;15.57;;;8.00;;
73791;SDS011;62122;41.112;16.694;2022-09-06T19:38:22;13.73;;;7.65;;
73791;SDS011;62122;41.112;16.694;2022-09-06T19:41:27;14.80;;;7.88;;
73791;SDS011;62122;41.112;16.694;2022-09-06T19:44:32;16.77;;;8.00;;
73791;SDS011;62122;41.112;16.694;2022-09-06T19:47:36;15.30;;;8.38;;
73791;SDS011;62122;41.112;16.694;2022-09-06T19:50:40;11.02;;;7.05;;
73791;SDS011;62122;41.112;16.694;2022-09-06T19:53:48;12.57;;;7.43;;
73791;SDS011;62122;41.112;16.694;2022-09-06T19:56:55;12.32;;;7.07;;
73791;SDS011;62122;41.112;16.694;2022-09-06T19:59:59;10.82;;;6.50;;
73791;SDS011;62122;41.112;16.694;2022-09-06T20:03:02;12.10;;;6.78;;
73791;SDS011;62122;41.112;16.694;2022-09-06T20:06:10;10.20;;;6.30;;
73791;SDS011;62122;41.112;16.694;2022-09-06T20:09:14;9.98;;;6.45;;
73791;SDS011;62122;41.112;16.694;2022-09-06T20:12:37;11.32;;;6.82;;
73791;SDS011;62122;41.112;16.694;2022-09-06T20:15:43;12.52;;;7.35;;
73791;SDS011;62122;41.112;16.694;2022-09-06T20:18:47;12.63;;;6.72;;
73791;SDS011;62122;41.112;16.694;2022-09-06T20:21:47;9.35;;;6.28;;
73791;SDS011;62122;41.112;16.694;2022-09-06T20:24:51;11.63;;;6.45;;